AirNav   ProFlight Series 2 Aviation Headset
 
 1116 users online  

OH96 Neals Airport
Mount Orab, Ohio, USA

GOING TO MOUNT ORAB?


FAA INFORMATION EFFECTIVE 16 JULY 2020

Location

FAA Identifier: OH96
Lat/Long: 39-02-01.0000N 083-53-10.0000W
39-02.016667N 083-53.166667W
39.0336111,-83.8861111
(estimated)
Elevation: 953 ft. / 290 m (estimated)
Variation: 04W (1985)
From city: 2 miles NE of MOUNT ORAB, OH
Time zone: UTC -4 (UTC -5 during Standard Time)
Zip code: 45154

Airport Operations

Airport use: Private use. Permission required prior to landing
Activation date: 03/1971
Control tower: no
ARTCC: INDIANAPOLIS CENTER
FSS: DAYTON FLIGHT SERVICE STATION
Attendance: UNATNDD
Wind indicator: yes
Segmented circle: no
Lights: ACTVT LIRL RY 10/28- 122.9.
Beacon: white (unlighted land airport)
ACTVT ROTG BCN - 122.9.

Airport Communications

WX AWOS-3 at I69 (15 nm W): 127.275 (513-732-6978)
WX AWOS-3 at HOC (19 nm NE): 118.175 (937-393-9038)

Nearby radio navigation aids

VOR radial/distance  VOR name  Freq  Var
MXQr193/24.1MIDWEST VOR/DME112.9004W
FLMr045/30.4FALMOUTH VOR/DME117.0004W
CVGr092/38.1CINCINNATI VORTAC117.3004W

 
NDB name  Hdg/Dist  Freq  Var  ID
SPORTYS104/15.624504WPWF .--. .-- ..-.
WEST UNION309/18.535904WAMT .- -- -
HOOK FIELD141/38.223904WHKF .... -.- ..-.

Airport Services

Runway Information

Runway 10/28

Dimensions: 3000 x 75 ft. / 914 x 23 m
Surface: turf
Runway edge lights: low intensity
RUNWAY 10  RUNWAY 28
Traffic pattern: leftleft
Obstructions: pline, 700 ft. from runwaynone

Airport Ownership and Management from official FAA records

Ownership: Privately-owned
Owner: WENDELL W. NEAL
4477 OAKLAND RD, RT 1
BETHEL, OH 45106
Phone 513-444-2248

Additional Remarks

FOR CD CTC INDIANAPOLIS ARTCC AT 317-247-2411.

Instrument Procedures

There are no published instrument procedures at OH96.

Some nearby airports with instrument procedures:

KGEO - Brown County Airport (9 nm S)
I69 - Clermont County Airport (15 nm W)
KAMT - Alexander Salamon Airport (19 nm SE)
KHOC - Highland County Airport (19 nm NE)
KILN - Wilmington Air Park (24 nm N)
 
Loc | Ops | Rwys | IFR | FBO | Links
Com | Nav | Svcs | Stats | Notes
Area around OH96 (Neals Airport)
 
Road maps at: MapQuest Bing Google
 
Aerial photo
WARNING: Photo may not be current or correct
Aerial photo of OH96 (Neals Airport)
Do you have a better or more recent aerial photo of Neals Airport that you would like to share? If so, please send us your photo.

 
Sectional chart

 
Airport distance calculator
Flying to Neals Airport? Find the distance to fly.

From to OH96

Sunrise and sunset
Times for 09-Aug-2020
 Local
(UTC-4)
 Zulu
(UTC)
Morning civil twilight06:1610:16
Sunrise06:4510:45
Sunset20:3600:36
Evening civil twilight21:0501:05

Current date and time
Zulu (UTC)  09-Aug-2020 15:23:33
Local (UTC-4)  09-Aug-2020 11:23:33
 
METAR
KI69 
15nm W 
091455Z AUTO 18005KT 10SM CLR 27/18 A3019 RMK AO2 T02720180
KILN 
24nm N 
091454Z AUTO 19008KT 10SM CLR 26/18 A3018 RMK AO2 SLP210 T02610178 58000 $
KLUK 
25nm W 
091453Z 20005KT 10SM CLR 27/20 A3016 RMK AO2 SLP211 T02670200 58003
KFGX 
30nm S 
091455Z AUTO 26003KT 10SM CLR 27/19 A3020 RMK AO2 T02700191
TAF
KILN 
24nm N 
091132Z 0912/1012 19003KT P6SM SCT250 FM091600 20005KT P6SM SCT050 FM100000 VRB03KT P6SM SCT250
KLUK 
25nm W 
091132Z 0912/1012 VRB03KT 5SM BR SCT250 TEMPO 0912/0913 1/4SM FG VV001 FM091300 VRB03KT P6SM SCT250 FM091600 19005KT P6SM SCT050 FM100000 00000KT P6SM SCT250 FM100700 00000KT 4SM BR SCT080
NOTAMs
Click for the latest NOTAMs
NOTAMs are issued by the DoD/FAA and will open in a separate window not controlled by AirNav.

 

 
 

Would you like to see your business listed on this page?

 If your business provides an interesting product or service to pilots, flight crews, aircraft, or users of the Neals Airport, you should consider listing it here.  To start the listing process, click on the button below
 
Add a business
 

Other Pages about Neals Airport

Update a link
 
Copyright © AirNav, LLC. All rights reserved. Privacy Policy  Contact